Time;durP1;ratioP1;P1;durP2;ratioP2;P2;SDS_P1;SDS_P2;PMS_P1;PMS_P2;Temp;Humidity;BMP_temperature;BMP_pressure;BME280_temperature;BME280_humidity;BME280_pressure;Samples;Min_cycle;Max_cycle;Signal;HPM_P1;HPM_P2
2022/08/26 00:00:58;;;;;;;;;;;22.10;66.50;;;21.53;61.23;96030.31;4100512;34;19904;-84
2022/08/26 00:03:27;;;;;;;;;;;22.10;66.40;;;21.52;61.24;96035.09;4100157;34;20099;-84
2022/08/26 00:05:55;;;;;;;;;;;22.10;66.40;;;21.50;61.25;96031.00;4118200;34;20433;-84
2022/08/26 00:08:24;;;;;;;;;;;22.20;66.50;;;21.52;61.27;96039.84;4117485;34;19905;-84
2022/08/26 00:10:52;;;;;;;;;;;22.10;66.60;;;21.51;61.23;96041.81;4073897;34;20279;-84
2022/08/26 00:13:22;;;;;;;;;;;22.10;66.50;;;21.50;61.24;96039.38;4095735;34;20427;-85
2022/08/26 00:15:51;;;;;;;;;;;22.10;66.40;;;21.51;61.55;96035.41;4073800;34;19905;-85
2022/08/26 00:18:19;;;;;;;;;;;22.10;66.70;;;21.50;61.24;96036.56;4073202;34;20181;-86
2022/08/26 00:20:48;;;;;;;;;;;22.10;66.50;;;21.48;61.35;96038.91;4095871;34;19916;-84
2022/08/26 00:23:17;;;;;;;;;;;22.10;66.60;;;21.49;61.41;96041.34;4095589;34;19913;-85
2022/08/26 00:25:45;;;;;;;;;;;22.10;67.40;;;21.49;61.25;96035.78;4073645;34;19982;-84
2022/08/26 00:28:14;;;;;;;;;;;22.10;66.60;;;21.49;61.32;96040.56;4073196;34;19905;-84
2022/08/26 00:30:46;;;;;;;;;;;22.10;66.50;;;21.49;61.22;96034.97;4095701;34;19927;-85
2022/08/26 00:33:15;;;;;;;;;;;22.10;66.60;;;21.48;61.25;96036.13;4096392;34;20162;-85
2022/08/26 00:35:44;;;;;;;;;;;22.10;66.50;;;21.46;61.34;96028.94;4095640;34;19904;-85
2022/08/26 00:38:12;;;;;;;;;;;22.10;66.60;;;21.46;61.17;96037.28;4073044;34;19904;-85
2022/08/26 00:40:49;;;;;;;;;;;22.10;66.50;;;21.45;61.13;96041.22;4073542;34;19904;-84
2022/08/26 00:43:18;;;;;;;;;;;22.00;66.40;;;21.45;61.43;96035.66;4073387;34;19912;-84
2022/08/26 00:45:51;;;;;;;;;;;22.10;66.60;;;21.44;61.36;96034.03;4051655;34;20124;-85
2022/08/26 00:48:22;;;;;;;;;;;22.10;66.60;;;21.44;61.19;96039.59;4073036;34;20071;-85
2022/08/26 00:50:54;;;;;;;;;;;22.10;66.70;;;21.44;61.45;96028.47;4073614;34;20355;-84
2022/08/26 00:54:02;;;;;;;;;;;22.10;66.70;;;21.44;61.39;96033.22;4073405;34;19905;-85
2022/08/26 00:56:34;;;;;;;;;;;22.00;66.60;;;21.44;61.10;96038.78;4073095;34;20131;-85
2022/08/26 00:59:06;;;;;;;;;;;22.10;66.60;;;21.43;61.51;96042.72;4118778;34;19911;-85
2022/08/26 01:01:36;;;;;;;;;;;22.00;66.50;;;21.43;60.91;96034.38;4075728;34;20072;-85
2022/08/26 01:04:05;;;;;;;;;;;22.10;66.60;;;21.41;61.15;96026.38;4119995;34;19904;-84
2022/08/26 01:06:33;;;;;;;;;;;22.00;66.60;;;21.41;61.49;96034.72;4119484;34;19928;-85
2022/08/26 01:09:02;;;;;;;;;;;22.00;66.50;;;21.39;61.41;96034.25;4098566;34;19904;-85
2022/08/26 01:11:31;;;;;;;;;;;22.00;66.50;;;21.41;61.24;96040.28;4075548;34;19904;-85
2022/08/26 01:14:00;;;;;;;;;;;22.00;66.50;;;21.41;61.70;96036.72;4098480;34;20009;-85
2022/08/26 01:16:29;;;;;;;;;;;22.00;66.50;;;21.38;61.48;96027.06;4075178;34;20353;-85
2022/08/26 01:19:03;;;;;;;;;;;22.00;66.60;;;21.39;61.32;96028.69;4097505;34;20160;-85
2022/08/26 01:21:35;;;;;;;;;;;22.00;66.60;;;21.38;61.56;96027.06;4097555;34;19906;-85
2022/08/26 01:24:05;;;;;;;;;;;22.00;66.60;;;21.38;61.44;96027.06;4097522;34;20048;-85
2022/08/26 01:26:36;;;;;;;;;;;22.00;66.60;;;21.38;61.33;96029.03;4096976;34;20136;-85
2022/08/26 01:29:05;;;;;;;;;;;22.00;66.60;;;21.36;61.23;96023.81;4119775;34;19904;-85
2022/08/26 01:31:38;;;;;;;;;;;22.00;66.40;;;21.37;61.30;96022.63;4119744;34;19913;-86
2022/08/26 01:34:10;;;;;;;;;;;22.00;66.50;;;21.35;61.32;96033.34;4119540;34;19904;-85
2022/08/26 01:36:39;;;;;;;;;;;22.00;66.50;;;21.36;61.55;96028.56;4075198;34;19912;-85
2022/08/26 01:39:09;;;;;;;;;;;22.00;66.70;;;21.35;61.48;96030.53;4075383;34;20096;-85
2022/08/26 01:41:37;;;;;;;;;;;21.90;66.50;;;21.35;61.27;96030.53;4074871;34;19964;-86
2022/08/26 01:44:07;;;;;;;;;;;21.90;66.60;;;21.33;61.42;96021.72;4119518;34;19905;-85
2022/08/26 01:46:36;;;;;;;;;;;22.00;66.60;;;21.35;61.37;96024.16;4097649;34;19911;-86
2022/08/26 01:49:05;;;;;;;;;;;22.00;66.70;;;21.34;61.64;96020.56;4098139;34;20041;-84
2022/08/26 01:51:35;;;;;;;;;;;22.00;66.80;;;21.34;61.33;96023.34;4119561;34;20170;-85
2022/08/26 01:54:04;;;;;;;;;;;21.90;66.60;;;21.33;61.41;96020.88;4098473;34;19904;-86
2022/08/26 01:56:34;;;;;;;;;;;22.00;66.70;;;21.32;61.39;96020.09;4118410;34;19905;-85
2022/08/26 01:59:05;;;;;;;;;;;21.90;66.60;;;21.31;61.31;96018.47;4098109;34;20305;-86
2022/08/26 02:01:33;;;;;;;;;;;21.90;66.50;;;21.31;61.40;96024.03;4075045;34;20109;-86
2022/08/26 02:04:07;;;;;;;;;;;21.90;66.60;;;21.31;61.41;96015.69;4097966;34;19905;-85
2022/08/26 02:06:36;;;;;;;;;;;21.90;66.60;;;21.31;61.64;96015.69;4086434;34;20109;-85
2022/08/26 02:09:05;;;;;;;;;;;21.90;66.80;;;21.30;61.71;96011.25;4123594;34;20135;-84
2022/08/26 02:11:35;;;;;;;;;;;21.90;66.90;;;21.30;61.36;96014.06;4124799;34;19920;-86
2022/08/26 02:14:08;;;;;;;;;;;21.90;66.70;;;21.29;61.73;96018.81;4123628;34;19904;-85
2022/08/26 02:16:38;;;;;;;;;;;21.90;66.80;;;21.29;61.55;96015.22;4101380;34;20014;-86
2022/08/26 02:19:08;;;;;;;;;;;21.90;66.80;;;21.28;61.27;96014.41;4101671;34;19988;-85
2022/08/26 02:21:37;;;;;;;;;;;21.90;66.60;;;21.29;61.44;96020.78;4124725;34;20037;-85
2022/08/26 02:24:10;;;;;;;;;;;21.90;66.50;;;21.28;61.43;96025.53;4124747;34;19911;-85
2022/08/26 02:26:40;;;;;;;;;;;21.90;66.70;;;21.27;61.48;96032.28;4123182;34;20170;-84
2022/08/26 02:38:57;;;;;;;;;;;21.80;66.80;;;21.25;61.53;96030.97;4021139;35;19967;-84
2022/08/26 02:45:53;;;;;;;;;;;21.80;66.70;;;21.24;61.62;96029.34;4016873;35;20236;-85
2022/08/26 02:48:21;;;;;;;;;;;21.80;66.80;;;21.23;61.36;96033.31;4047737;34;20075;-84
2022/08/26 02:50:50;;;;;;;;;;;21.80;66.60;;;21.22;61.60;96032.47;4096701;34;19920;-85
2022/08/26 02:53:19;;;;;;;;;;;21.80;66.90;;;21.23;61.54;96038.88;4118842;34;20212;-84
2022/08/26 02:55:48;;;;;;;;;;;21.80;66.80;;;21.23;61.66;96044.44;4096623;34;20150;-84
2022/08/26 02:58:17;;;;;;;;;;;21.80;66.90;;;21.22;61.71;96042.81;4118325;34;19967;-84
2022/08/26 03:00:45;;;;;;;;;;;21.80;66.90;;;21.20;61.92;96043.13;4118851;34;19912;-85
2022/08/26 03:03:15;;;;;;;;;;;21.80;67.00;;;21.20;61.63;96040.34;4097368;34;20460;-85
2022/08/26 03:05:44;;;;;;;;;;;21.80;66.80;;;21.19;61.60;96043.50;4096415;34;20224;-84
2022/08/26 03:08:12;;;;;;;;;;;21.80;66.80;;;21.19;61.63;96049.06;4096051;34;20482;-85
2022/08/26 03:10:41;;;;;;;;;;;21.80;67.00;;;21.18;61.62;96041.88;4096301;34;19957;-84
2022/08/26 03:13:09;;;;;;;;;;;21.80;66.90;;;21.18;61.73;96056.59;4118629;34;20132;-85
2022/08/26 03:15:38;;;;;;;;;;;21.80;67.00;;;21.17;61.80;96056.94;4097180;34;20034;-85
2022/08/26 03:18:06;;;;;;;;;;;21.80;67.00;;;21.18;61.79;96047.44;4074655;34;19904;-84
2022/08/26 03:20:36;;;;;;;;;;;21.80;67.00;;;21.16;61.82;96045.00;4073898;34;20158;-85
2022/08/26 03:23:05;;;;;;;;;;;21.80;67.00;;;21.15;61.56;96052.53;4074797;34;20056;-84
2022/08/26 03:25:33;;;;;;;;;;;21.70;66.90;;;21.16;62.22;96056.13;4097102;34;19904;-85
2022/08/26 03:28:02;;;;;;;;;;;21.80;67.20;;;21.14;61.76;96056.47;4108652;34;20016;-84
2022/08/26 03:30:38;;;;;;;;;;;21.70;67.10;;;21.14;61.93;96059.25;4123815;34;20070;-84
2022/08/26 03:33:07;;;;;;;;;;;21.80;67.40;;;21.14;61.93;96059.25;4122901;34;20137;-84
2022/08/26 03:35:37;;;;;;;;;;;21.70;67.10;;;21.13;62.00;96057.63;4100647;34;19914;-85
2022/08/26 03:38:07;;;;;;;;;;;21.70;67.30;;;21.14;61.65;96058.44;4100129;34;19911;-85
2022/08/26 03:40:35;;;;;;;;;;;21.70;67.20;;;21.11;61.88;96054.34;4100553;34;19952;-85
2022/08/26 03:43:04;;;;;;;;;;;21.70;67.20;;;21.12;61.93;96056.00;4123841;34;19904;-84
2022/08/26 03:45:33;;;;;;;;;;;21.70;67.00;;;21.11;61.93;96059.13;4100409;34;19904;-85
2022/08/26 03:48:02;;;;;;;;;;;21.70;67.20;;;21.11;61.97;96054.34;4144874;34;19904;-85
2022/08/26 03:50:30;;;;;;;;;;;21.70;67.20;;;21.12;61.80;96066.31;4122717;34;20032;-84
2022/08/26 03:53:00;;;;;;;;;;;21.70;67.10;;;21.11;62.05;96059.94;4100354;34;19911;-85
2022/08/26 03:55:31;;;;;;;;;;;21.70;67.20;;;21.12;62.07;96061.56;4122739;34;19904;-85
2022/08/26 03:57:59;;;;;;;;;;;21.70;67.10;;;21.12;61.90;96072.69;4099918;34;20161;-85
2022/08/26 04:00:28;;;;;;;;;;;21.70;67.10;;;21.13;61.89;96065.16;4078310;34;20175;-84
2022/08/26 04:02:56;;;;;;;;;;;21.70;67.10;;;21.14;61.73;96078.72;4078282;34;19995;-84
2022/08/26 04:05:25;;;;;;;;;;;21.70;67.00;;;21.15;61.51;96072.00;4122727;34;19911;-84
2022/08/26 04:07:54;;;;;;;;;;;21.80;66.80;;;21.16;61.42;96072.84;4099727;34;20035;-84
2022/08/26 04:10:26;;;;;;;;;;;21.80;66.70;;;21.18;61.53;96064.13;4122687;34;20422;-85
2022/08/26 04:12:54;;;;;;;;;;;21.80;66.80;;;21.19;61.32;96060.19;4123371;34;20161;-85
2022/08/26 04:15:23;;;;;;;;;;;21.80;66.50;;;21.21;61.20;96063.47;4122623;34;20193;-85
2022/08/26 04:17:51;;;;;;;;;;;21.80;66.30;;;21.22;61.19;96063.09;4099663;34;19927;-84
2022/08/26 04:20:20;;;;;;;;;;;21.80;66.20;;;21.25;61.13;96058.81;4099989;34;20137;-86
2022/08/26 04:22:48;;;;;;;;;;;21.90;66.40;;;21.26;61.17;96057.66;4100147;34;19911;-84
2022/08/26 04:25:17;;;;;;;;;;;21.90;66.00;;;21.29;61.01;96059.75;4100073;34;19904;-85
2022/08/26 04:27:47;;;;;;;;;;;21.90;66.00;;;21.29;60.47;96057.81;4121831;34;19912;-83
2022/08/26 04:30:16;;;;;;;;;;;21.90;65.60;;;21.33;60.21;96057.91;4100093;34;19904;-85
2022/08/26 04:32:44;;;;;;;;;;;21.90;65.50;;;21.34;60.16;96056.75;4123895;34;19904;-85
2022/08/26 04:35:13;;;;;;;;;;;22.00;65.20;;;21.35;60.10;96058.41;4124808;34;20153;-85
2022/08/26 04:37:42;;;;;;;;;;;22.00;65.20;;;21.37;60.23;96067.19;4102024;34;19904;-84
2022/08/26 04:40:11;;;;;;;;;;;22.00;65.30;;;21.37;60.26;96058.84;4102360;34;19911;-84
2022/08/26 04:42:40;;;;;;;;;;;22.00;65.10;;;21.39;59.58;96059.31;4080252;34;19904;-85
2022/08/26 04:45:11;;;;;;;;;;;22.00;64.70;;;21.42;59.67;96064.19;4102526;34;20144;-85
2022/08/26 04:47:39;;;;;;;;;;;22.10;64.70;;;21.44;59.73;96061.88;4101729;34;20007;-85
2022/08/26 04:50:09;;;;;;;;;;;22.10;64.80;;;21.47;59.64;96060.38;4125703;34;20012;-84
2022/08/26 04:52:37;;;;;;;;;;;22.10;64.70;;;21.48;59.79;96059.22;4080338;34;20353;-85
2022/08/26 04:55:06;;;;;;;;;;;22.10;64.60;;;21.49;59.58;96057.25;4080283;34;19904;-85
2022/08/26 04:57:35;;;;;;;;;;;22.10;64.50;;;21.52;59.85;96060.16;4146662;34;20131;-85
2022/08/26 05:00:05;;;;;;;;;;;22.20;64.70;;;21.55;59.86;96055.88;4102322;34;19927;-85
2022/08/26 05:02:36;;;;;;;;;;;22.20;64.70;;;21.57;59.50;96054.34;4124456;34;20146;-85
2022/08/26 05:05:06;;;;;;;;;;;22.20;64.40;;;21.60;59.62;96053.69;4102153;34;19911;-85
2022/08/26 05:07:34;;;;;;;;;;;22.20;64.60;;;21.64;59.51;96051.03;4101609;34;19904;-84
2022/08/26 05:10:03;;;;;;;;;;;22.30;64.60;;;21.72;60.04;96050.13;4102236;34;19904;-85
2022/08/26 05:12:32;;;;;;;;;;;22.30;65.00;;;21.84;60.23;96046.50;4125234;34;19951;-85
2022/08/26 05:15:00;;;;;;;;;;;22.50;65.00;;;22.01;60.12;96053.03;4080307;34;20025;-85
2022/08/26 05:17:30;;;;;;;;;;;22.80;64.70;;;22.25;59.88;96059.72;4101546;34;20176;-85
2022/08/26 05:20:00;;;;;;;;;;;23.00;64.00;;;22.50;59.38;96058.56;4125358;34;20120;-85
2022/08/26 05:22:28;;;;;;;;;;;23.30;63.50;;;22.73;58.25;96051.66;4101897;34;20160;-84
2022/08/26 05:24:56;;;;;;;;;;;23.50;62.60;;;22.88;57.81;96052.88;4101891;34;20094;-83
2022/08/26 05:27:25;;;;;;;;;;;23.70;62.00;;;22.98;57.45;96050.38;4123851;34;19938;-85
2022/08/26 05:29:57;;;;;;;;;;;23.70;61.30;;;23.02;57.25;96046.91;4102085;34;20131;-85
2022/08/26 05:32:26;;;;;;;;;;;23.80;61.00;;;23.02;57.11;96052.47;4101778;34;19920;-85
2022/08/26 05:34:55;;;;;;;;;;;23.70;61.20;;;22.96;57.48;96055.50;4101894;34;19937;-85
2022/08/26 05:37:25;;;;;;;;;;;23.70;61.40;;;22.91;57.56;96046.59;4101472;34;19987;-85
2022/08/26 05:39:54;;;;;;;;;;;23.70;61.60;;;22.87;57.50;96059.63;4125150;34;20235;-85
2022/08/26 05:42:22;;;;;;;;;;;23.60;61.90;;;22.82;57.96;96057.88;4101816;34;19959;-85
2022/08/26 05:44:52;;;;;;;;;;;23.50;63.00;;;22.78;57.71;96055.00;4101206;34;19904;-84
2022/08/26 05:47:21;;;;;;;;;;;23.50;62.30;;;22.75;58.29;96055.69;4123503;34;20108;-85
2022/08/26 05:49:49;;;;;;;;;;;23.50;62.50;;;22.74;58.09;96061.66;4123992;34;20095;-85
2022/08/26 05:52:18;;;;;;;;;;;23.40;62.60;;;22.72;57.89;96058.41;4101591;34;20113;-85
2022/08/26 05:54:48;;;;;;;;;;;23.40;62.70;;;22.71;58.30;96059.56;4101707;34;20127;-84
2022/08/26 05:57:16;;;;;;;;;;;23.40;62.80;;;22.71;57.86;96065.97;4101054;34;19904;-85
2022/08/26 05:59:45;;;;;;;;;;;23.40;62.70;;;22.71;58.43;96065.13;4101638;34;19904;-85
2022/08/26 06:02:14;;;;;;;;;;;23.40;62.80;;;22.70;58.15;96057.94;4101513;34;19904;-85
2022/08/26 06:04:43;;;;;;;;;;;23.40;62.90;;;22.70;58.09;96058.75;4123904;34;19965;-85
2022/08/26 06:07:11;;;;;;;;;;;23.40;62.90;;;22.71;58.10;96065.13;4101114;34;20377;-85
2022/08/26 06:09:40;;;;;;;;;;;23.40;63.00;;;22.74;58.25;96064.44;4124063;34;19911;-85
2022/08/26 06:12:11;;;;;;;;;;;23.40;63.00;;;22.74;58.45;96067.22;4123710;34;20027;-85
2022/08/26 06:14:40;;;;;;;;;;;23.40;63.10;;;22.75;58.08;96064.06;4123932;34;19904;-85
2022/08/26 06:17:08;;;;;;;;;;;23.40;63.10;;;22.76;58.46;96064.91;4124202;34;20111;-85
2022/08/26 06:19:37;;;;;;;;;;;23.40;63.10;;;22.76;57.96;96064.91;4101581;34;20223;-85
2022/08/26 06:25:36;;;;;;;;;;;23.40;63.00;;;22.77;58.47;96060.94;4101335;34;20027;-85
2022/08/26 06:27:41;;;;;;;;;;;23.40;63.20;;;22.78;58.32;96063.38;4145669;34;19904;-85
2022/08/26 06:30:11;;;;;;;;;;;23.40;63.30;;;22.80;58.66;96063.00;4101409;34;19911;-84
2022/08/26 06:32:40;;;;;;;;;;;23.40;63.30;;;22.81;58.17;96061.84;4123430;34;20006;-84
2022/08/26 06:35:09;;;;;;;;;;;23.40;63.30;;;22.81;58.54;96059.06;4101253;34;19960;-85
2022/08/26 06:37:38;;;;;;;;;;;23.40;63.40;;;22.81;58.44;96057.09;4100680;34;19911;-85
2022/08/26 06:40:08;;;;;;;;;;;23.40;63.30;;;22.81;58.46;96056.25;4101250;34;19904;-85
2022/08/26 06:42:36;;;;;;;;;;;23.40;63.30;;;22.83;58.57;96056.72;4123519;34;19911;-85
2022/08/26 06:45:10;;;;;;;;;;;23.40;63.40;;;22.84;58.28;96047.19;4101262;34;19904;-85
2022/08/26 06:47:38;;;;;;;;;;;23.40;63.50;;;22.84;58.59;96055.56;4100532;34;19904;-86
2022/08/26 06:50:08;;;;;;;;;;;23.40;63.40;;;22.85;58.30;96054.41;4101061;34;19944;-86
2022/08/26 06:52:36;;;;;;;;;;;23.40;63.50;;;22.87;58.54;96049.28;4100779;34;19967;-85
2022/08/26 06:55:06;;;;;;;;;;;23.40;63.50;;;22.89;58.37;96049.75;4101144;34;19904;-85
2022/08/26 06:57:35;;;;;;;;;;;23.50;63.60;;;22.91;58.23;96047.41;4120324;34;19904;-85
2022/08/26 07:00:06;;;;;;;;;;;23.50;63.50;;;22.90;58.33;96045.78;4100979;34;19904;-85
2022/08/26 07:02:36;;;;;;;;;;;23.50;63.50;;;22.91;58.61;96053.00;4124109;34;19968;-85
2022/08/26 07:05:06;;;;;;;;;;;23.50;63.50;;;22.90;58.54;96048.56;4123249;34;20093;-85
2022/08/26 07:07:34;;;;;;;;;;;23.50;63.60;;;22.90;58.75;96045.78;4145382;34;19904;-85
2022/08/26 07:10:03;;;;;;;;;;;23.50;63.60;;;22.90;58.31;96048.56;4123877;34;20262;-85
2022/08/26 07:12:32;;;;;;;;;;;23.50;63.60;;;22.90;58.44;96044.97;4100835;34;19904;-84
2022/08/26 07:15:00;;;;;;;;;;;23.40;63.50;;;22.89;58.68;96044.16;4100780;34;19905;-84
2022/08/26 07:17:28;;;;;;;;;;;23.40;63.50;;;22.88;58.53;96042.53;4100407;34;20049;-85
2022/08/26 07:19:58;;;;;;;;;;;23.40;63.60;;;22.89;58.52;96040.53;4100708;34;20233;-86
2022/08/26 07:22:27;;;;;;;;;;;23.40;63.60;;;22.89;58.45;96043.31;4123929;34;20484;-85
2022/08/26 07:24:55;;;;;;;;;;;23.40;63.60;;;22.90;58.52;96036.59;4100702;34;19904;-85
2022/08/26 07:27:24;;;;;;;;;;;23.40;63.70;;;22.91;58.72;96035.41;4122700;34;20211;-85
2022/08/26 07:29:56;;;;;;;;;;;23.40;63.80;;;22.91;58.64;96033.44;4145449;34;20104;-85
2022/08/26 07:32:24;;;;;;;;;;;23.40;63.70;;;22.92;58.48;96031.47;4100636;34;20001;-85
2022/08/26 07:34:53;;;;;;;;;;;23.40;63.70;;;22.93;58.78;96028.31;4100592;34;19904;-85
2022/08/26 07:37:23;;;;;;;;;;;23.40;63.70;;;22.95;58.49;96023.19;4100165;34;19904;-85
2022/08/26 07:39:51;;;;;;;;;;;23.40;63.60;;;22.96;58.38;96021.22;4100605;34;19977;-86
2022/08/26 07:42:20;;;;;;;;;;;23.40;63.80;;;22.96;58.61;96022.00;4122843;34;19927;-85
2022/08/26 07:44:49;;;;;;;;;;;23.50;63.70;;;22.97;58.51;96023.63;4100429;34;19904;-85
2022/08/26 07:47:17;;;;;;;;;;;23.50;63.70;;;22.99;58.41;96014.91;4122424;34;20380;-85
2022/08/26 07:49:46;;;;;;;;;;;23.50;63.70;;;22.98;58.58;96019.69;4100315;34;20032;-85
2022/08/26 07:52:14;;;;;;;;;;;23.50;63.70;;;23.01;58.53;96011.75;4100389;34;19912;-86
2022/08/26 07:54:44;;;;;;;;;;;23.50;63.70;;;23.02;58.50;96010.59;4123612;34;20134;-86
2022/08/26 07:57:12;;;;;;;;;;;23.50;63.60;;;23.02;58.66;96005.81;4100033;34;20143;-85
2022/08/26 07:59:41;;;;;;;;;;;23.50;63.70;;;23.02;58.45;96013.41;4100466;34;19971;-85
2022/08/26 08:02:09;;;;;;;;;;;23.50;63.60;;;23.03;58.59;96004.66;4100371;34;20130;-85
2022/08/26 08:04:38;;;;;;;;;;;23.50;63.60;;;23.05;58.59;96009.88;4100398;34;20093;-85
2022/08/26 08:07:06;;;;;;;;;;;23.50;63.60;;;23.01;58.62;95998.59;4099668;34;20092;-85
2022/08/26 08:09:35;;;;;;;;;;;23.50;63.70;;;23.03;58.61;96003.84;4122496;34;20116;-85
2022/08/26 08:12:06;;;;;;;;;;;23.50;63.60;;;23.03;58.38;95999.06;4122323;34;19912;-85
2022/08/26 08:14:36;;;;;;;;;;;23.50;63.70;;;23.03;58.58;95998.28;4122598;34;19904;-85
2022/08/26 08:17:04;;;;;;;;;;;23.50;63.70;;;23.03;58.67;95993.47;4122082;34;20238;-85
2022/08/26 08:19:33;;;;;;;;;;;23.50;63.70;;;23.01;58.60;95989.44;4100265;34;20293;-85
2022/08/26 08:22:03;;;;;;;;;;;23.50;63.80;;;22.99;58.67;95982.22;4122511;34;19904;-86
2022/08/26 08:24:32;;;;;;;;;;;23.50;63.80;;;22.98;58.48;95980.59;4122534;34;19926;-86
2022/08/26 08:27:02;;;;;;;;;;;23.50;63.70;;;22.96;58.49;95982.94;4123015;34;20163;-86
2022/08/26 08:29:33;;;;;;;;;;;23.50;63.80;;;22.95;58.57;95974.94;4122138;34;23174;-86
2022/08/26 08:32:03;;;;;;;;;;;23.50;63.80;;;22.93;58.64;95972.47;4122411;34;19904;-86
2022/08/26 08:34:32;;;;;;;;;;;23.50;63.80;;;22.91;58.87;95974.84;4100069;34;19904;-86
2022/08/26 08:37:00;;;;;;;;;;;23.50;63.90;;;22.90;59.20;95973.22;4121975;34;20284;-87
2022/08/26 08:39:29;;;;;;;;;;;23.40;63.90;;;22.88;58.79;95972.75;4095667;34;20098;-86
2022/08/26 08:42:28;;;;;;;;;;;23.40;64.00;;;22.87;58.93;95968.34;4095353;34;19905;-86
2022/08/26 08:44:59;;;;;;;;;;;23.40;64.00;;;22.83;58.89;95971.03;4096462;34;20283;-86
2022/08/26 08:47:32;;;;;;;;;;;23.40;64.00;;;22.81;59.26;95965.00;4106144;29;20094;-82
2022/08/26 08:50:06;;;;;;;;;;;23.40;64.10;;;22.80;58.90;95962.53;4150167;34;20118;-82
2022/08/26 08:52:35;;;;;;;;;;;23.40;64.10;;;22.78;59.09;95962.09;4104339;34;20130;-82
2022/08/26 08:55:20;;;;;;;;;;;23.40;64.30;;;22.76;59.45;95958.84;4104536;34;20079;-83
2022/08/26 08:58:00;;;;;;;;;;;23.30;64.40;;;22.73;59.33;95952.00;4144637;34;19904;-83
2022/08/26 09:00:33;;;;;;;;;;;23.30;64.50;;;22.72;59.78;95949.56;4100129;34;19984;-83
2022/08/26 09:03:11;;;;;;;;;;;23.30;64.70;;;22.71;59.46;95947.94;4077787;34;20053;-83
2022/08/26 09:05:50;;;;;;;;;;;23.30;64.50;;;22.70;59.32;95947.16;4124594;34;20118;-82
2022/08/26 09:08:23;;;;;;;;;;;23.30;64.50;;;22.68;59.42;95939.09;4104291;34;20004;-83
2022/08/26 09:10:54;;;;;;;;;;;23.30;64.60;;;22.66;59.74;95941.44;4104234;34;19910;-82
2022/08/26 09:13:24;;;;;;;;;;;23.30;64.60;;;22.66;59.90;95941.44;4126714;34;19907;-82
2022/08/26 09:16:01;;;;;;;;;;;23.30;64.80;;;22.64;59.57;95935.44;4126712;34;19960;-83
2022/08/26 09:18:47;;;;;;;;;;;23.30;64.70;;;22.63;59.83;95931.00;4121236;34;19919;-82
2022/08/26 09:21:17;;;;;;;;;;;23.30;64.80;;;22.62;59.95;95934.97;4101889;34;19904;-83
2022/08/26 09:23:46;;;;;;;;;;;23.20;64.60;;;22.61;59.65;95938.91;4124352;34;19911;-83
2022/08/26 09:26:18;;;;;;;;;;;23.20;64.70;;;22.60;59.59;95930.88;4080063;34;20236;-82
2022/08/26 09:28:49;;;;;;;;;;;23.20;64.60;;;22.58;59.72;95934.03;4101865;34;20339;-83
2022/08/26 09:31:23;;;;;;;;;;;23.20;64.70;;;22.57;59.71;95926.84;4124030;34;20005;-82
2022/08/26 09:34:06;;;;;;;;;;;23.20;64.80;;;22.56;59.76;95924.41;4146929;34;20130;-82
2022/08/26 09:36:37;;;;;;;;;;;23.20;64.70;;;22.55;60.09;95917.22;4101364;34;19904;-82
2022/08/26 09:39:06;;;;;;;;;;;23.20;64.90;;;22.54;59.78;95916.38;4079914;34;20061;-82
2022/08/26 09:41:35;;;;;;;;;;;23.20;64.90;;;22.52;59.82;95918.75;4125098;34;20309;-82
2022/08/26 09:44:14;;;;;;;;;;;23.20;64.80;;;22.51;59.80;95926.28;4101749;34;20084;-82
2022/08/26 09:46:54;;;;;;;;;;;23.20;64.80;;;22.51;59.80;95931.06;4101104;34;19956;-82
2022/08/26 09:49:34;;;;;;;;;;;23.10;64.80;;;22.50;60.17;95921.06;4101481;34;20214;-82
2022/08/26 09:52:18;;;;;;;;;;;23.10;64.90;;;22.49;59.74;95914.66;4146708;34;19911;-83
2022/08/26 09:55:17;;;;;;;;;;;23.10;64.80;;;22.48;59.74;95918.63;4080071;34;19927;-83
2022/08/26 09:57:50;;;;;;;;;;;23.10;64.70;;;22.47;59.86;95927.34;4124584;34;19904;-82
2022/08/26 10:03:27;;;;;;;;;;;23.10;64.80;;;22.46;60.10;95909.00;4077567;34;20019;-83
2022/08/26 10:05:58;;;;;;;;;;;23.10;64.90;;;22.46;59.57;95922.94;4079632;34;19904;-82
2022/08/26 10:08:29;;;;;;;;;;;23.10;64.90;;;22.44;59.83;95911.31;4101075;34;20073;-83
2022/08/26 10:11:11;;;;;;;;;;;23.10;64.80;;;22.43;59.49;95909.69;4146366;34;19912;-83
2022/08/26 10:13:42;;;;;;;;;;;23.10;64.60;;;22.42;59.87;95903.31;4101640;34;19927;-83
2022/08/26 10:16:17;;;;;;;;;;;23.10;64.70;;;22.41;59.92;95906.41;4124783;34;19904;-83
2022/08/26 10:18:53;;;;;;;;;;;23.00;64.70;;;22.41;59.97;95903.63;4101406;34;19904;-82
2022/08/26 10:21:25;;;;;;;;;;;23.00;65.00;;;22.41;59.96;95895.25;4101628;34;20379;-83
2022/08/26 10:23:56;;;;;;;;;;;23.00;65.10;;;22.40;60.68;95899.25;4079747;34;20134;-83
2022/08/26 10:26:32;;;;;;;;;;;23.00;65.30;;;22.38;59.90;95897.63;4100949;34;19914;-83
2022/08/26 10:29:05;;;;;;;;;;;23.00;65.00;;;22.38;59.96;95892.03;4079799;34;19911;-81
2022/08/26 10:31:36;;;;;;;;;;;23.00;65.00;;;22.37;60.09;95887.63;4101123;34;19911;-81
2022/08/26 10:34:06;;;;;;;;;;;23.00;65.20;;;22.37;59.67;95884.84;4101244;34;20058;-81
2022/08/26 10:36:51;;;;;;;;;;;23.00;65.00;;;22.35;60.18;95884.38;4123907;34;20137;-81
2022/08/26 10:39:24;;;;;;;;;;;23.00;65.00;;;22.35;60.12;95884.38;4080419;34;20153;-81
2022/08/26 10:41:58;;;;;;;;;;;23.00;65.20;;;22.35;60.04;95881.59;4101476;34;20355;-81
2022/08/26 10:44:27;;;;;;;;;;;23.00;65.10;;;22.34;60.10;95884.72;4079674;34;20068;-81
2022/08/26 10:47:03;;;;;;;;;;;23.00;65.20;;;22.32;60.41;95876.72;4100714;34;19955;-81
2022/08/26 10:49:36;;;;;;;;;;;23.00;65.30;;;22.31;60.25;95883.47;4123975;34;19904;-83
2022/08/26 10:52:14;;;;;;;;;;;23.00;65.20;;;22.32;60.04;95885.09;4101219;34;19903;-82
2022/08/26 10:54:45;;;;;;;;;;;22.90;65.00;;;22.31;60.22;95875.09;4105808;34;19911;-83
2022/08/26 10:57:17;;;;;;;;;;;22.90;65.10;;;22.30;60.08;95873.47;4127417;34;19904;-83
2022/08/26 10:59:52;;;;;;;;;;;22.90;65.00;;;22.30;60.04;95878.25;4151284;34;20126;-83
2022/08/26 11:02:25;;;;;;;;;;;22.90;65.10;;;22.29;60.09;95882.19;4151403;34;19909;-83
2022/08/26 11:05:01;;;;;;;;;;;22.90;65.00;;;22.29;59.98;95871.84;4127784;34;19911;-82
2022/08/26 11:07:36;;;;;;;;;;;22.90;64.80;;;22.28;59.86;95869.44;4127309;34;20054;-83
2022/08/26 11:10:08;;;;;;;;;;;22.90;64.90;;;22.27;59.93;95862.22;4127931;34;20079;-83
2022/08/26 11:12:57;;;;;;;;;;;22.90;64.90;;;22.26;59.92;95867.00;4127778;34;19904;-83
2022/08/26 11:15:58;;;;;;;;;;;22.90;64.80;;;22.25;60.12;95868.16;4173262;34;19911;-83
2022/08/26 11:18:45;;;;;;;;;;;22.90;65.00;;;22.25;60.05;95865.38;4172732;34;20237;-83
2022/08/26 11:22:05;;;;;;;;;;;22.90;65.10;;;22.23;60.36;95862.13;4151419;34;20321;-83
2022/08/26 11:25:09;;;;;;;;;;;22.90;64.90;;;22.23;60.15;95860.13;4171839;34;19904;-83
2022/08/26 11:28:13;;;;;;;;;;;22.90;64.80;;;22.20;59.83;95866.41;4082718;34;20042;-83
2022/08/26 11:30:51;;;;;;;;;;;22.90;64.80;;;22.21;59.86;95865.25;4124110;34;20338;-81
2022/08/26 11:34:08;;;;;;;;;;;22.80;64.80;;;22.20;59.92;95858.06;4145513;34;19912;-83
2022/08/26 11:37:00;;;;;;;;;;;22.80;64.90;;;22.19;59.94;95859.25;4100193;34;20062;-82
2022/08/26 11:39:32;;;;;;;;;;;22.80;65.10;;;22.19;60.17;95856.47;4100086;34;19911;-83
2022/08/26 11:42:04;;;;;;;;;;;22.80;65.10;;;22.20;60.10;95860.84;4100060;34;20218;-82
2022/08/26 11:44:38;;;;;;;;;;;22.80;65.20;;;22.19;60.22;95856.47;4100957;34;20115;-82
2022/08/26 11:47:09;;;;;;;;;;;22.80;65.30;;;22.19;60.78;95861.22;4123056;34;19908;-82
2022/08/26 11:49:37;;;;;;;;;;;22.80;65.40;;;22.18;60.20;95857.63;4100530;34;19911;-82
2022/08/26 11:52:14;;;;;;;;;;;22.80;65.40;;;22.19;60.24;95850.06;4122771;34;19904;-82
2022/08/26 11:55:01;;;;;;;;;;;22.80;65.20;;;22.18;60.28;95854.84;4100669;34;20051;-82
2022/08/26 11:57:30;;;;;;;;;;;22.80;65.40;;;22.17;60.38;95842.06;4078106;34;19904;-82